Time;durP1;ratioP1;P1;durP2;ratioP2;P2;SDS_P1;SDS_P2;PMS_P1;PMS_P2;Temp;Humidity;BMP_temperature;BMP_pressure;BME280_temperature;BME280_humidity;BME280_pressure;Samples;Min_cycle;Max_cycle;Signal;HPM_P1;HPM_P2
2022/01/27 00:05:33;;;;;;;50.45;19.67;;;5.30;99.90;;;;;;5045321;28;20072;-67
2022/01/27 00:08:14;;;;;;;45.03;19.98;;;5.30;99.90;;;;;;5042076;28;20586;-65
2022/01/27 00:11:16;;;;;;;50.38;21.05;;;5.30;99.90;;;;;;5055022;28;20140;-65
2022/01/27 00:13:43;;;;;;;48.95;20.30;;;5.30;99.90;;;;;;5049284;28;20171;-66
2022/01/27 00:16:15;;;;;;;48.75;20.50;;;5.30;99.90;;;;;;5048857;28;20045;-66
2022/01/27 00:18:43;;;;;;;50.80;20.50;;;5.30;99.90;;;;;;5046267;28;20813;-66
2022/01/27 00:21:09;;;;;;;49.28;20.48;;;5.30;99.90;;;;;;5034196;28;20037;-65
2022/01/27 00:23:35;;;;;;;49.67;19.80;;;5.30;99.90;;;;;;5048803;28;20206;-64
2022/01/27 00:26:01;;;;;;;50.70;20.00;;;5.30;99.90;;;;;;5021977;28;20367;-67
2022/01/27 00:28:27;;;;;;;45.75;18.98;;;5.30;99.90;;;;;;5049553;28;20059;-65
2022/01/27 00:30:53;;;;;;;49.05;19.67;;;5.30;99.90;;;;;;5049921;28;20734;-66
2022/01/27 00:33:19;;;;;;;45.42;18.70;;;5.40;99.90;;;;;;5047607;28;20167;-64
2022/01/27 00:35:44;;;;;;;45.53;20.48;;;5.40;99.90;;;;;;5049431;28;20032;-65
2022/01/27 00:38:10;;;;;;;46.55;19.08;;;5.40;99.90;;;;;;5048054;28;20481;-63
2022/01/27 00:40:36;;;;;;;48.75;19.60;;;5.40;99.90;;;;;;5051187;28;20029;-65
2022/01/27 00:43:01;;;;;;;50.28;19.83;;;5.40;99.90;;;;;;5048570;28;20131;-65
2022/01/27 00:45:29;;;;;;;44.63;19.90;;;5.40;99.90;;;;;;5048616;28;20447;-66
2022/01/27 00:47:55;;;;;;;46.83;18.88;;;5.40;99.90;;;;;;5032024;28;20059;-65
2022/01/27 00:50:21;;;;;;;43.15;19.15;;;5.40;99.90;;;;;;5047844;28;20045;-67
2022/01/27 00:52:53;;;;;;;50.05;20.25;;;5.40;99.90;;;;;;5048276;28;20045;-64
2022/01/27 00:55:21;;;;;;;46.38;19.10;;;5.40;99.90;;;;;;5048781;28;20119;-66
2022/01/27 01:00:13;;;;;;;48.00;19.15;;;5.40;99.90;;;;;;5050068;28;20048;-66
2022/01/27 01:03:27;;;;;;;45.25;19.15;;;5.30;99.90;;;;;;5032260;28;20047;-66
2022/01/27 01:07:57;;;;;;;43.75;18.75;;;5.30;99.90;;;;;;5045889;28;20048;-66
2022/01/27 01:13:56;;;;;;;44.70;18.50;;;5.30;99.90;;;;;;5045540;28;20061;-64
2022/01/27 01:15:52;;;;;;;41.85;17.83;;;5.30;99.90;;;;;;5047644;28;20064;-66
2022/01/27 01:32:06;;;;;;;45.92;18.98;;;5.30;99.90;;;;;;5048781;28;20071;-65
2022/01/27 01:34:33;;;;;;;43.70;20.88;;;5.30;99.90;;;;;;5060939;28;20144;-66
2022/01/27 01:37:04;;;;;;;40.90;16.85;;;5.30;99.90;;;;;;5047528;28;20131;-64
2022/01/27 01:39:33;;;;;;;38.60;17.40;;;5.30;99.90;;;;;;5050362;28;20382;-64
2022/01/27 01:42:00;;;;;;;47.60;18.73;;;5.30;99.90;;;;;;5031674;28;20097;-67
2022/01/27 01:44:27;;;;;;;42.13;18.02;;;5.30;99.90;;;;;;5031543;28;20083;-66
2022/01/27 01:46:53;;;;;;;42.17;18.05;;;5.30;99.90;;;;;;5046187;28;20136;-66
2022/01/27 01:49:22;;;;;;;41.47;17.67;;;5.30;99.90;;;;;;5031193;28;20093;-64
2022/01/27 01:51:49;;;;;;;39.55;16.98;;;5.30;99.90;;;;;;5047991;28;20530;-66
2022/01/27 01:54:15;;;;;;;44.97;17.95;;;5.30;99.90;;;;;;5065827;28;20152;-67
2022/01/27 01:56:42;;;;;;;43.70;19.02;;;5.20;99.90;;;;;;5048624;28;20151;-64
2022/01/27 01:59:08;;;;;;;40.67;17.25;;;5.20;99.90;;;;;;5046105;28;20117;-65
2022/01/27 02:01:35;;;;;;;39.00;18.15;;;5.30;99.90;;;;;;5049646;28;20473;-65
2022/01/27 02:04:05;;;;;;;45.33;18.00;;;5.20;99.90;;;;;;5046998;28;20033;-65
2022/01/27 02:06:37;;;;;;;41.75;17.40;;;5.20;99.90;;;;;;5046695;28;20360;-65
2022/01/27 02:09:15;;;;;;;38.00;17.90;;;5.20;99.90;;;;;;5031948;28;20033;-64
2022/01/27 02:19:56;;;;;;;40.75;17.08;;;5.30;99.90;;;;;;5047389;28;20457;-65
2022/01/27 02:22:22;;;;;;;40.13;17.83;;;5.40;99.90;;;;;;5048182;28;20549;-65
2022/01/27 02:24:49;;;;;;;40.13;18.33;;;5.40;99.90;;;;;;5048321;28;20048;-64
2022/01/27 02:27:15;;;;;;;36.88;16.70;;;5.40;99.90;;;;;;5047067;28;20412;-67
2022/01/27 02:29:41;;;;;;;41.40;17.90;;;5.30;99.90;;;;;;5046618;28;20041;-63
2022/01/27 02:32:07;;;;;;;40.67;17.67;;;5.30;99.90;;;;;;5046905;28;20090;-64
2022/01/27 02:34:34;;;;;;;42.58;17.83;;;5.30;99.90;;;;;;5046640;28;20065;-65
2022/01/27 02:36:59;;;;;;;41.67;17.48;;;5.20;99.90;;;;;;5048884;28;20068;-65
2022/01/27 02:39:26;;;;;;;38.17;17.63;;;5.30;99.90;;;;;;5042590;28;20064;-65
2022/01/27 02:41:54;;;;;;;39.35;17.38;;;5.30;99.90;;;;;;5046972;28;20105;-65
2022/01/27 02:44:32;;;;;;;40.22;17.88;;;5.30;99.90;;;;;;5046156;28;20487;-64
2022/01/27 02:46:58;;;;;;;46.65;17.77;;;5.30;99.90;;;;;;5045080;28;20041;-65
2022/01/27 02:49:24;;;;;;;38.72;17.27;;;5.30;99.90;;;;;;5045525;28;20047;-64
2022/01/27 02:51:51;;;;;;;42.95;19.00;;;5.30;99.90;;;;;;5044105;28;20428;-65
2022/01/27 02:54:17;;;;;;;44.63;17.85;;;5.30;99.90;;;;;;5046105;28;20136;-66
2022/01/27 02:56:46;;;;;;;40.58;17.52;;;5.30;99.90;;;;;;5045197;28;20097;-66
2022/01/27 02:59:13;;;;;;;39.33;17.30;;;5.30;99.90;;;;;;5063275;28;20140;-64
2022/01/27 03:01:39;;;;;;;41.90;17.90;;;5.30;99.90;;;;;;5041420;28;20735;-67
2022/01/27 03:04:05;;;;;;;42.10;17.75;;;5.30;99.90;;;;;;5047597;28;20043;-64
2022/01/27 03:06:30;;;;;;;44.35;17.90;;;5.20;99.90;;;;;;5046980;28;20079;-67
2022/01/27 03:08:56;;;;;;;47.97;19.13;;;5.20;99.90;;;;;;5047270;28;20598;-64
2022/01/27 03:11:36;;;;;;;46.15;19.55;;;5.30;99.90;;;;;;5048751;28;20219;-65
2022/01/27 03:14:03;;;;;;;42.88;18.42;;;5.30;99.90;;;;;;5048101;28;20102;-65
2022/01/27 03:16:28;;;;;;;46.88;18.77;;;5.30;99.90;;;;;;5046644;28;20037;-66
2022/01/27 03:18:54;;;;;;;47.33;18.52;;;5.30;99.90;;;;;;5045865;28;20514;-64
2022/01/27 03:21:19;;;;;;;44.78;19.48;;;5.20;99.90;;;;;;5047299;28;20045;-66
2022/01/27 03:23:45;;;;;;;44.58;19.17;;;5.30;99.90;;;;;;5046647;28;20571;-66
2022/01/27 03:26:11;;;;;;;41.30;18.88;;;5.30;99.90;;;;;;5048221;28;20094;-64
2022/01/27 03:28:37;;;;;;;47.83;18.58;;;5.30;99.90;;;;;;5047102;28;20431;-67
2022/01/27 03:31:02;;;;;;;48.88;20.23;;;5.30;99.90;;;;;;5048108;28;20032;-65
2022/01/27 03:33:28;;;;;;;46.22;19.20;;;5.30;99.90;;;;;;5044262;28;20033;-65
2022/01/27 03:35:53;;;;;;;43.72;19.58;;;5.30;99.90;;;;;;5046411;28;20053;-66
2022/01/27 03:38:19;;;;;;;46.83;19.75;;;5.30;99.90;;;;;;5046436;28;20143;-65
2022/01/27 03:40:44;;;;;;;53.38;21.65;;;5.30;99.90;;;;;;5031373;28;20040;-65
2022/01/27 03:43:11;;;;;;;47.42;20.05;;;5.30;99.90;;;;;;5045162;28;20033;-66
2022/01/27 03:45:37;;;;;;;46.63;19.35;;;5.30;99.90;;;;;;5045020;28;20036;-64
2022/01/27 03:48:04;;;;;;;45.95;19.27;;;5.30;99.90;;;;;;5030330;28;20114;-67
2022/01/27 03:50:29;;;;;;;46.38;19.15;;;5.30;99.90;;;;;;5050693;28;20032;-66
2022/01/27 03:52:55;;;;;;;44.78;20.25;;;5.30;99.90;;;;;;5047668;28;20033;-66
2022/01/27 03:55:20;;;;;;;52.30;20.02;;;5.30;99.90;;;;;;5050905;28;20072;-65
2022/01/27 03:57:46;;;;;;;43.42;18.50;;;5.30;99.90;;;;;;5066669;28;20044;-66
2022/01/27 04:00:12;;;;;;;45.55;19.88;;;5.40;99.90;;;;;;5050821;28;20033;-64
2022/01/27 04:02:50;;;;;;;48.53;19.67;;;5.30;99.90;;;;;;5049015;28;20113;-64
2022/01/27 04:05:15;;;;;;;51.72;20.60;;;5.40;99.90;;;;;;5049513;28;20385;-66
2022/01/27 04:07:42;;;;;;;41.53;19.10;;;5.40;99.90;;;;;;5049440;28;20040;-66
2022/01/27 04:10:08;;;;;;;44.55;18.70;;;5.40;99.90;;;;;;5034627;28;20037;-66
2022/01/27 04:12:33;;;;;;;48.70;19.75;;;5.30;99.90;;;;;;5034951;28;20048;-68
2022/01/27 04:14:59;;;;;;;47.50;19.45;;;5.30;99.90;;;;;;5051554;28;20445;-67
2022/01/27 04:17:24;;;;;;;49.38;20.23;;;5.30;99.90;;;;;;5050997;28;20048;-65
2022/01/27 04:19:50;;;;;;;48.80;20.27;;;5.30;99.90;;;;;;5051664;28;20032;-65
2022/01/27 04:22:15;;;;;;;42.55;19.52;;;5.30;99.90;;;;;;5055448;28;20064;-66
2022/01/27 04:24:41;;;;;;;49.58;19.67;;;5.40;99.90;;;;;;5055010;28;20068;-64
2022/01/27 04:27:16;;;;;;;43.33;19.23;;;5.30;99.90;;;;;;5033104;28;20071;-67
2022/01/27 04:29:41;;;;;;;48.33;19.20;;;5.40;99.90;;;;;;5051324;28;20471;-66
2022/01/27 04:32:09;;;;;;;45.05;19.38;;;5.40;99.90;;;;;;5048245;28;20135;-67
2022/01/27 04:34:37;;;;;;;48.33;19.75;;;5.40;99.90;;;;;;5050095;28;20071;-66
2022/01/27 04:37:04;;;;;;;44.17;19.05;;;5.40;99.90;;;;;;5049300;28;20071;-66
2022/01/27 04:39:40;;;;;;;49.78;20.40;;;5.40;99.90;;;;;;5050636;28;20152;-66
2022/01/27 04:42:13;;;;;;;42.78;18.95;;;5.40;99.90;;;;;;5043202;28;20045;-68
2022/01/27 04:44:48;;;;;;;44.17;18.95;;;5.40;99.90;;;;;;5051549;28;20037;-66
2022/01/27 04:47:28;;;;;;;42.17;19.05;;;5.40;99.90;;;;;;5030720;28;20040;-65
2022/01/27 04:49:53;;;;;;;43.13;20.48;;;5.50;99.90;;;;;;5048764;28;20043;-67
2022/01/27 04:52:19;;;;;;;44.22;17.75;;;5.40;99.90;;;;;;5049942;28;20057;-66
2022/01/27 04:57:13;;;;;;;45.13;19.55;;;5.50;99.90;;;;;;5047575;28;20362;-65
2022/01/27 04:59:42;;;;;;;46.78;19.17;;;5.50;99.90;;;;;;5049616;28;20043;-66
2022/01/27 05:02:16;;;;;;;48.42;19.63;;;5.40;99.90;;;;;;5060494;28;20040;-66
2022/01/27 05:04:44;;;;;;;40.65;18.30;;;5.40;99.90;;;;;;5047296;28;20076;-65
2022/01/27 05:07:10;;;;;;;45.47;18.27;;;5.50;99.90;;;;;;5033210;28;20041;-68
2022/01/27 05:09:37;;;;;;;49.72;20.23;;;5.50;99.90;;;;;;5049915;28;20083;-65
2022/01/27 05:12:33;;;;;;;48.00;19.17;;;5.40;99.90;;;;;;5049793;28;20053;-65
2022/01/27 05:14:51;;;;;;;44.78;19.83;;;5.30;99.90;;;;;;5046793;28;20507;-67
2022/01/27 05:17:18;;;;;;;48.47;20.30;;;5.30;99.90;;;;;;5048029;28;20040;-66
2022/01/27 05:19:47;;;;;;;47.13;20.65;;;5.30;99.90;;;;;;5048974;28;20041;-65
2022/01/27 05:22:13;;;;;;;49.83;19.33;;;5.30;99.90;;;;;;5048313;28;20147;-65
2022/01/27 05:24:39;;;;;;;50.60;18.02;;;5.30;99.90;;;;;;5048172;28;20039;-66
2022/01/27 05:27:05;;;;;;;44.50;18.00;;;5.30;99.90;;;;;;5044414;28;20465;-65
2022/01/27 05:29:30;;;;;;;41.72;17.77;;;5.40;99.90;;;;;;5050853;28;20044;-65
2022/01/27 05:31:56;;;;;;;48.55;20.55;;;5.40;99.90;;;;;;5048837;28;20033;-65
2022/01/27 05:34:22;;;;;;;42.28;16.98;;;5.40;99.90;;;;;;5047200;28;20075;-67
2022/01/27 05:36:47;;;;;;;51.78;19.33;;;5.40;99.90;;;;;;5030866;28;20037;-67
2022/01/27 05:39:13;;;;;;;43.33;17.60;;;5.50;99.90;;;;;;5048964;28;20049;-64
2022/01/27 05:41:39;;;;;;;45.28;18.70;;;5.50;99.90;;;;;;5049621;28;20033;-66
2022/01/27 05:44:04;;;;;;;48.38;20.02;;;5.50;99.90;;;;;;5047849;28;20033;-66
2022/01/27 05:46:30;;;;;;;45.83;18.75;;;5.50;99.90;;;;;;5029973;28;20091;-65
2022/01/27 05:48:56;;;;;;;47.53;19.15;;;5.40;99.90;;;;;;5031350;28;20118;-64
2022/01/27 05:51:21;;;;;;;49.22;19.23;;;5.30;99.90;;;;;;5049287;28;20819;-66
2022/01/27 05:53:47;;;;;;;49.33;18.85;;;5.30;99.90;;;;;;5047585;28;20065;-63
2022/01/27 05:56:12;;;;;;;52.63;19.92;;;5.20;99.90;;;;;;5046604;28;20037;-68
2022/01/27 05:58:38;;;;;;;56.63;20.65;;;5.20;99.90;;;;;;5031570;28;20063;-66
2022/01/27 06:01:04;;;;;;;51.53;20.23;;;5.20;99.90;;;;;;5048732;28;20088;-66
2022/01/27 06:03:29;;;;;;;50.33;19.48;;;5.20;99.90;;;;;;5046946;28;20119;-66
2022/01/27 06:05:55;;;;;;;54.38;19.67;;;5.20;99.90;;;;;;5046845;28;20080;-65
2022/01/27 06:08:20;;;;;;;53.45;20.63;;;5.10;99.90;;;;;;5047677;28;20040;-65
2022/01/27 06:10:46;;;;;;;55.08;20.85;;;5.10;99.90;;;;;;5047369;28;20102;-67
2022/01/27 06:13:11;;;;;;;52.20;20.77;;;5.10;99.90;;;;;;5031789;28;20060;-67
2022/01/27 06:15:37;;;;;;;61.35;20.98;;;5.10;99.90;;;;;;5047718;28;20116;-66
2022/01/27 06:18:02;;;;;;;56.78;21.80;;;5.10;99.90;;;;;;5046520;28;20479;-67
2022/01/27 06:20:29;;;;;;;66.60;22.35;;;5.20;99.90;;;;;;5047734;28;20119;-66
2022/01/27 06:22:58;;;;;;;59.08;20.77;;;5.20;99.90;;;;;;5046043;28;20041;-68
2022/01/27 06:25:26;;;;;;;62.43;22.77;;;5.20;99.90;;;;;;5047397;28;20044;-68
2022/01/27 06:27:53;;;;;;;53.45;20.10;;;5.20;99.90;;;;;;5031368;28;20124;-66
2022/01/27 06:30:18;;;;;;;64.22;20.83;;;5.20;99.90;;;;;;5047933;28;20037;-68
2022/01/27 06:32:44;;;;;;;50.53;19.98;;;5.20;99.90;;;;;;5030902;28;20582;-65
2022/01/27 06:35:10;;;;;;;58.05;20.65;;;5.20;99.90;;;;;;5046790;28;20040;-64
2022/01/27 06:37:36;;;;;;;59.10;21.02;;;5.30;99.90;;;;;;5045542;28;20041;-66
2022/01/27 06:40:04;;;;;;;61.65;20.90;;;5.30;99.90;;;;;;5047720;28;20043;-68
2022/01/27 06:42:29;;;;;;;54.88;20.48;;;5.30;99.90;;;;;;5031159;28;20047;-66
2022/01/27 06:44:55;;;;;;;55.88;20.05;;;5.30;99.90;;;;;;5048495;28;20033;-68
2022/01/27 06:47:21;;;;;;;53.42;19.17;;;5.30;99.90;;;;;;5047318;28;20425;-65
2022/01/27 06:49:46;;;;;;;52.47;18.92;;;5.30;99.90;;;;;;5030851;28;20098;-65
2022/01/27 06:52:12;;;;;;;53.55;18.65;;;5.40;99.90;;;;;;5048118;28;20516;-66
2022/01/27 06:54:38;;;;;;;53.55;18.02;;;5.40;99.90;;;;;;5046841;28;20102;-64
2022/01/27 06:57:05;;;;;;;49.35;19.13;;;5.40;99.90;;;;;;5045046;28;20150;-65
2022/01/27 06:59:31;;;;;;;51.83;18.75;;;5.40;99.90;;;;;;5045008;28;20049;-66
2022/01/27 07:01:56;;;;;;;58.08;19.20;;;5.40;99.90;;;;;;5030165;28;20078;-68
2022/01/27 07:04:22;;;;;;;46.85;17.70;;;5.40;99.90;;;;;;5043897;28;20052;-66
2022/01/27 07:06:49;;;;;;;51.65;17.67;;;5.40;99.90;;;;;;5047166;28;20036;-64
2022/01/27 07:09:14;;;;;;;48.30;17.20;;;5.50;99.90;;;;;;5046886;28;20037;-65
2022/01/27 07:11:40;;;;;;;49.58;17.27;;;5.50;99.90;;;;;;5045270;28;20516;-65
2022/01/27 07:14:06;;;;;;;50.58;17.83;;;5.50;99.90;;;;;;5043733;28;20049;-64
2022/01/27 07:16:33;;;;;;;44.42;16.92;;;5.50;99.90;;;;;;5045766;28;20385;-64
2022/01/27 07:18:59;;;;;;;46.88;16.27;;;5.60;99.90;;;;;;5046730;28;20051;-65
2022/01/27 07:21:24;;;;;;;44.65;16.77;;;5.60;99.90;;;;;;5030213;28;20037;-63
2022/01/27 07:23:50;;;;;;;39.25;16.50;;;5.60;99.90;;;;;;5049378;28;20033;-65
2022/01/27 07:26:16;;;;;;;41.78;15.55;;;5.60;99.90;;;;;;5051216;28;20519;-66
2022/01/27 07:28:42;;;;;;;42.88;15.52;;;5.70;99.90;;;;;;5033717;28;20668;-65
2022/01/27 07:31:07;;;;;;;39.72;14.70;;;5.60;99.90;;;;;;5049414;28;20109;-64
2022/01/27 07:33:33;;;;;;;40.50;16.30;;;5.80;99.90;;;;;;5047673;28;20033;-65
2022/01/27 07:35:58;;;;;;;41.50;17.33;;;5.70;99.90;;;;;;5049598;28;20045;-65
2022/01/27 07:38:26;;;;;;;42.63;14.80;;;5.80;99.90;;;;;;5049453;28;20037;-65
2022/01/27 07:40:52;;;;;;;33.83;12.90;;;5.80;99.90;;;;;;5067410;28;20087;-66
2022/01/27 07:43:17;;;;;;;38.47;13.98;;;5.70;99.90;;;;;;5050898;28;20068;-65
2022/01/27 07:45:43;;;;;;;36.63;14.43;;;5.80;99.90;;;;;;5047456;28;20056;-65
2022/01/27 07:48:09;;;;;;;24.90;11.77;;;5.90;99.90;;;;;;5047876;28;20037;-64
2022/01/27 07:50:35;;;;;;;29.35;13.05;;;5.90;99.90;;;;;;5048919;28;20041;-65
2022/01/27 07:53:01;;;;;;;38.65;13.57;;;5.80;99.90;;;;;;5039093;28;20152;-66
2022/01/27 07:55:26;;;;;;;24.63;11.68;;;5.90;99.90;;;;;;5047114;28;20467;-66
2022/01/27 07:57:52;;;;;;;31.73;13.00;;;5.90;99.90;;;;;;5051442;28;20128;-66
2022/01/27 08:00:18;;;;;;;31.65;12.40;;;5.90;99.90;;;;;;5035637;28;20051;-63
2022/01/27 08:02:45;;;;;;;34.85;11.75;;;6.00;99.90;;;;;;5051324;28;20059;-64
2022/01/27 08:05:11;;;;;;;27.30;12.10;;;6.00;99.90;;;;;;5033422;28;20330;-66
2022/01/27 08:07:37;;;;;;;33.67;13.05;;;6.10;99.90;;;;;;5051776;28;20094;-64
2022/01/27 08:10:02;;;;;;;35.92;14.35;;;6.10;99.90;;;;;;5034773;28;20045;-66
2022/01/27 08:12:28;;;;;;;35.63;13.60;;;6.00;99.90;;;;;;5051495;28;20053;-65
2022/01/27 08:14:53;;;;;;;37.92;15.30;;;6.10;99.90;;;;;;5050648;28;20084;-65
2022/01/27 08:17:19;;;;;;;37.97;13.85;;;5.90;99.90;;;;;;5042873;28;20038;-66
2022/01/27 08:19:45;;;;;;;35.85;15.32;;;6.10;99.90;;;;;;5039196;28;20036;-66
2022/01/27 08:22:10;;;;;;;39.10;15.38;;;6.10;99.90;;;;;;5049271;28;20095;-65
2022/01/27 08:24:40;;;;;;;42.50;15.70;;;6.10;99.90;;;;;;5050245;28;20029;-65
2022/01/27 08:27:08;;;;;;;40.95;13.70;;;6.20;99.90;;;;;;5049133;28;20071;-65
2022/01/27 08:29:41;;;;;;;45.22;17.35;;;6.10;99.90;;;;;;5044626;28;20040;-65
2022/01/27 08:32:10;;;;;;;44.97;16.73;;;6.10;99.90;;;;;;5049703;28;20037;-64
2022/01/27 08:34:39;;;;;;;50.95;17.30;;;6.30;99.90;;;;;;5042413;28;20495;-65
2022/01/27 08:37:18;;;;;;;53.47;17.70;;;6.30;99.90;;;;;;5049294;28;20041;-65
2022/01/27 08:39:44;;;;;;;45.50;16.25;;;6.40;99.90;;;;;;5034610;28;20057;-65
2022/01/27 08:42:10;;;;;;;50.38;16.10;;;6.40;99.90;;;;;;5034233;28;20044;-66
2022/01/27 08:44:36;;;;;;;54.83;17.52;;;6.40;99.90;;;;;;5036049;28;20033;-65
2022/01/27 08:47:03;;;;;;;52.08;18.23;;;6.40;99.90;;;;;;5048516;28;20489;-63
2022/01/27 08:49:29;;;;;;;55.42;17.73;;;6.50;99.90;;;;;;5041651;28;20045;-66
2022/01/27 08:51:56;;;;;;;59.97;18.23;;;6.70;99.90;;;;;;5044360;28;20029;-66
2022/01/27 08:54:22;;;;;;;53.17;17.70;;;6.50;99.90;;;;;;5022965;28;20041;-65
2022/01/27 08:56:48;;;;;;;57.95;17.15;;;6.70;99.90;;;;;;5049374;28;20432;-67
2022/01/27 08:59:16;;;;;;;50.75;15.82;;;6.80;99.90;;;;;;5049014;28;20112;-65
2022/01/27 09:01:42;;;;;;;44.38;15.38;;;6.80;99.90;;;;;;5048609;28;20041;-64
2022/01/27 09:04:08;;;;;;;48.15;14.82;;;6.70;99.90;;;;;;5050180;28;20060;-66
2022/01/27 09:06:34;;;;;;;47.17;14.30;;;6.90;99.90;;;;;;5079856;28;20050;-67
2022/01/27 09:09:00;;;;;;;42.22;15.90;;;6.70;99.90;;;;;;5049464;28;20556;-67
2022/01/27 09:11:29;;;;;;;47.17;14.85;;;6.80;99.90;;;;;;5048695;28;20128;-66
2022/01/27 09:13:55;;;;;;;49.22;14.48;;;6.90;99.90;;;;;;5030382;28;20033;-65
2022/01/27 09:16:21;;;;;;;44.80;13.00;;;6.90;99.90;;;;;;5032029;28;20126;-67
2022/01/27 09:18:47;;;;;;;48.25;13.05;;;6.90;99.90;;;;;;5045860;28;20036;-67
2022/01/27 09:21:19;;;;;;;45.55;14.32;;;6.90;99.90;;;;;;5048397;28;20063;-67
2022/01/27 09:23:45;;;;;;;41.78;12.85;;;7.00;99.90;;;;;;5033596;28;20115;-65
2022/01/27 09:26:37;;;;;;;35.05;11.93;;;7.00;99.90;;;;;;5049872;28;20115;-67
2022/01/27 09:28:56;;;;;;;38.30;12.50;;;7.00;99.90;;;;;;5052128;28;20048;-67
2022/01/27 09:31:22;;;;;;;35.30;11.57;;;6.90;99.90;;;;;;5048595;28;20044;-66
2022/01/27 09:33:47;;;;;;;39.03;12.15;;;7.00;99.90;;;;;;5046375;28;20122;-67
2022/01/27 09:36:13;;;;;;;33.72;11.27;;;7.10;99.90;;;;;;5060816;28;20052;-66
2022/01/27 09:38:38;;;;;;;40.28;11.40;;;7.00;99.90;;;;;;5049962;28;20037;-67
2022/01/27 09:41:07;;;;;;;32.53;11.18;;;7.00;99.90;;;;;;5051035;28;20059;-66
2022/01/27 09:43:34;;;;;;;31.38;11.35;;;7.00;99.90;;;;;;5050006;28;20321;-66
2022/01/27 09:46:04;;;;;;;32.45;10.55;;;7.20;99.90;;;;;;5031036;28;20075;-66
2022/01/27 09:48:36;;;;;;;36.42;10.27;;;7.10;99.90;;;;;;5047512;28;20461;-67
2022/01/27 09:51:26;;;;;;;30.35;10.13;;;7.30;99.90;;;;;;5050523;28;20051;-66
2022/01/27 09:53:49;;;;;;;30.77;9.15;;;7.30;99.90;;;;;;5047862;28;20036;-65
2022/01/27 09:56:15;;;;;;;28.40;9.05;;;7.40;99.90;;;;;;5046237;28;20064;-66
2022/01/27 09:58:40;;;;;;;28.02;9.07;;;7.30;99.90;;;;;;5032476;28;20155;-65
2022/01/27 10:01:06;;;;;;;27.50;8.35;;;7.30;99.90;;;;;;5048371;28;20552;-65
2022/01/27 10:03:32;;;;;;;28.85;8.13;;;7.40;99.90;;;;;;5047571;28;20100;-66
2022/01/27 10:06:15;;;;;;;33.38;8.50;;;7.40;99.90;;;;;;5045288;28;20037;-65
2022/01/27 10:08:41;;;;;;;23.42;7.40;;;7.50;99.90;;;;;;5048695;28;20048;-64
2022/01/27 10:11:16;;;;;;;34.13;7.55;;;7.50;99.90;;;;;;5046245;28;20056;-65
2022/01/27 10:13:44;;;;;;;24.77;7.75;;;7.50;99.90;;;;;;5046772;28;20044;-68
2022/01/27 10:16:29;;;;;;;23.30;6.50;;;7.60;99.90;;;;;;5047526;28;20071;-64
2022/01/27 10:19:09;;;;;;;28.02;7.95;;;7.60;99.90;;;;;;5046691;28;20040;-65
2022/01/27 10:21:36;;;;;;;19.50;6.30;;;7.60;99.90;;;;;;5047681;28;20151;-64
2022/01/27 10:24:23;;;;;;;22.65;6.90;;;7.70;99.90;;;;;;5045825;28;20511;-67
2022/01/27 10:27:18;;;;;;;25.38;6.30;;;7.70;99.90;;;;;;5049681;28;20488;-66
2022/01/27 10:30:05;;;;;;;19.77;5.55;;;7.70;99.90;;;;;;5047349;28;20147;-64
2022/01/27 10:32:44;;;;;;;17.15;6.10;;;7.70;99.90;;;;;;5048635;28;20415;-65
2022/01/27 10:35:12;;;;;;;17.60;6.35;;;7.70;99.90;;;;;;5047071;28;20049;-64
2022/01/27 10:38:04;;;;;;;20.40;6.00;;;7.70;99.90;;;;;;5028683;28;20119;-66
2022/01/27 10:40:33;;;;;;;22.17;6.70;;;7.70;99.90;;;;;;5028414;28;20040;-65
2022/01/27 10:43:07;;;;;;;24.42;7.63;;;7.80;99.90;;;;;;5045267;28;20567;-65
2022/01/27 10:45:33;;;;;;;19.42;6.03;;;7.80;99.90;;;;;;5048583;28;20044;-67
2022/01/27 10:48:24;;;;;;;20.23;5.85;;;7.80;99.90;;;;;;5045674;28;20064;-66
2022/01/27 10:50:59;;;;;;;16.55;5.80;;;7.90;99.90;;;;;;5042611;28;20033;-66
2022/01/27 10:53:53;;;;;;;16.92;5.57;;;7.90;99.90;;;;;;5032642;28;20049;-65
2022/01/27 10:56:31;;;;;;;23.70;5.70;;;7.90;99.90;;;;;;5046647;28;20048;-66
2022/01/27 10:58:58;;;;;;;21.20;5.70;;;7.90;99.90;;;;;;5062774;28;20045;-65
2022/01/27 11:01:33;;;;;;;32.58;6.43;;;8.00;99.90;;;;;;5046585;28;20045;-66
2022/01/27 11:04:02;;;;;;;23.02;6.00;;;8.00;99.90;;;;;;5045524;28;20104;-66
2022/01/27 11:06:30;;;;;;;24.85;7.82;;;8.00;99.90;;;;;;5046232;28;20458;-66
2022/01/27 11:08:58;;;;;;;20.70;8.90;;;8.00;99.90;;;;;;5046579;28;20040;-66
2022/01/27 11:11:26;;;;;;;20.77;6.30;;;8.00;99.90;;;;;;5059903;28;20374;-67
2022/01/27 11:13:54;;;;;;;21.00;6.15;;;8.00;99.90;;;;;;5040136;28;20051;-65
2022/01/27 11:16:29;;;;;;;24.67;6.80;;;8.00;99.90;;;;;;5043548;28;20069;-65
2022/01/27 11:19:02;;;;;;;19.73;5.95;;;8.00;99.90;;;;;;5042726;28;20060;-67
2022/01/27 11:21:34;;;;;;;19.85;5.40;;;8.10;99.90;;;;;;5046727;28;20064;-66
2022/01/27 11:24:06;;;;;;;26.10;6.10;;;8.10;99.90;;;;;;5063293;28;20041;-66
2022/01/27 11:26:34;;;;;;;14.50;5.32;;;8.10;99.90;;;;;;5048334;28;20364;-64
2022/01/27 11:29:01;;;;;;;22.80;5.05;;;8.20;99.90;;;;;;5044660;28;20442;-67
2022/01/27 11:31:54;;;;;;;25.25;5.10;;;8.20;99.90;;;;;;5045921;28;20040;-64
2022/01/27 11:34:20;;;;;;;17.17;5.68;;;8.20;99.90;;;;;;5028881;28;20048;-66
2022/01/27 11:37:06;;;;;;;18.35;4.95;;;8.20;99.90;;;;;;5048666;28;20502;-64
2022/01/27 11:39:51;;;;;;;23.73;5.40;;;8.30;99.90;;;;;;5049509;28;20536;-63
2022/01/27 11:42:42;;;;;;;18.50;4.80;;;8.30;99.90;;;;;;5048747;28;20031;-65
2022/01/27 11:45:23;;;;;;;;;;;8.20;99.90;;;;;;5041230;28;20088;-64
2022/01/27 11:48:01;;;;;;;16.35;4.60;;;8.20;99.90;;;;;;5079933;28;20270;-65
2022/01/27 11:50:37;;;;;;;17.42;4.82;;;8.20;99.90;;;;;;5049653;28;20041;-65
2022/01/27 11:53:06;;;;;;;19.55;4.85;;;8.20;99.90;;;;;;5054250;28;20049;-65
2022/01/27 11:55:43;;;;;;;14.88;4.18;;;8.30;99.90;;;;;;5060205;28;20040;-65
2022/01/27 11:58:15;;;;;;;17.63;4.45;;;8.20;99.90;;;;;;5039433;28;20160;-65
2022/01/27 12:00:59;;;;;;;20.77;4.82;;;8.30;99.90;;;;;;5040608;28;20036;-66
2022/01/27 12:03:26;;;;;;;16.95;3.70;;;8.30;99.90;;;;;;5036143;28;20045;-64
2022/01/27 12:06:18;;;;;;;17.33;3.83;;;8.30;99.90;;;;;;5038450;28;20036;-65
2022/01/27 12:08:45;;;;;;;16.60;3.95;;;8.30;99.90;;;;;;5047552;28;20104;-65
2022/01/27 12:11:39;;;;;;;10.93;3.72;;;8.30;99.90;;;;;;5052204;28;20049;-63
2022/01/27 12:14:05;;;;;;;17.15;3.10;;;8.40;99.90;;;;;;5050151;28;20064;-65
2022/01/27 12:19:04;;;;;;;15.68;3.70;;;8.40;99.90;;;;;;5068161;28;20478;-65
2022/01/27 12:21:40;;;;;;;14.45;3.50;;;8.40;99.90;;;;;;5052490;28;20119;-65
2022/01/27 12:24:16;;;;;;;16.25;3.40;;;8.40;99.90;;;;;;5049554;28;20041;-64
2022/01/27 12:26:51;;;;;;;15.73;3.33;;;8.40;99.90;;;;;;5051805;28;20045;-63
2022/01/27 12:29:40;;;;;;;16.45;4.10;;;8.50;99.90;;;;;;5051084;28;20489;-64
2022/01/27 12:32:17;;;;;;;13.55;3.33;;;8.50;99.90;;;;;;5050302;28;20115;-65
2022/01/27 12:34:54;;;;;;;17.65;4.40;;;8.50;99.90;;;;;;5051130;28;20598;-64
2022/01/27 12:37:23;;;;;;;18.50;3.38;;;8.50;99.90;;;;;;5052978;28;20044;-66
2022/01/27 12:39:54;;;;;;;12.98;3.45;;;8.50;99.90;;;;;;5049083;28;20039;-65
2022/01/27 12:42:24;;;;;;;14.65;3.10;;;8.50;99.90;;;;;;5051156;28;20040;-64
2022/01/27 12:45:02;;;;;;;21.45;4.25;;;8.50;99.90;;;;;;5049584;28;20468;-65
2022/01/27 12:47:30;;;;;;;17.40;4.10;;;8.40;99.90;;;;;;5051020;28;20041;-64
2022/01/27 12:50:06;;;;;;;11.18;2.85;;;8.30;99.90;;;;;;5050442;28;20037;-64
2022/01/27 12:52:38;;;;;;;15.20;3.63;;;8.30;99.90;;;;;;5050923;28;20049;-64
2022/01/27 12:55:06;;;;;;;21.50;3.33;;;8.20;99.90;;;;;;5051453;28;20045;-64
2022/01/27 12:57:32;;;;;;;13.40;2.90;;;8.10;99.90;;;;;;5033874;28;20051;-64
2022/01/27 12:59:59;;;;;;;14.75;3.00;;;8.10;99.90;;;;;;5051535;28;20138;-64
2022/01/27 13:02:27;;;;;;;12.27;3.05;;;8.10;99.90;;;;;;5050376;28;20047;-65
2022/01/27 13:04:55;;;;;;;14.05;3.05;;;8.00;99.90;;;;;;5041608;28;20036;-64
2022/01/27 13:07:22;;;;;;;20.40;3.42;;;7.90;99.90;;;;;;5050717;28;20446;-63
2022/01/27 13:09:59;;;;;;;15.98;3.40;;;7.90;99.90;;;;;;5050149;28;20052;-64
2022/01/27 13:12:30;;;;;;;14.63;3.38;;;8.00;99.90;;;;;;5043841;28;20080;-63
2022/01/27 13:15:06;;;;;;;23.02;4.07;;;8.00;99.90;;;;;;5034100;28;20065;-65
2022/01/27 13:17:45;;;;;;;16.35;3.70;;;7.90;99.90;;;;;;5050854;28;20076;-63
2022/01/27 13:20:25;;;;;;;12.80;3.50;;;7.90;99.90;;;;;;5046971;28;20453;-65
2022/01/27 13:25:57;;;;;;;17.20;3.22;;;7.90;99.90;;;;;;5034536;28;20063;-64
2022/01/27 13:28:31;;;;;;;;;;;7.90;99.90;;;;;;5035230;28;20143;-64
2022/01/27 13:31:02;;;;;;;19.65;3.35;;;7.90;99.90;;;;;;5034028;28;19924;-65
2022/01/27 13:33:34;;;;;;;17.63;3.65;;;7.90;99.90;;;;;;5032491;28;20098;-64